Arcadia, Oklahoma
Current Conditions -  °F | °C
As of 8:53 AM on Wednesday 22 Oct 2014 (Local Time) from KGOK Reporting Station
Clear Clear  
Wind Chill: 63°   Ceiling: Unl
Heat Index: 63°   Visibility: 10mi
Dew Point: 59°   Wind: 5mph
Humidity: 87%   Direction: 170°S
Pressure: 30.15"   Gusts: NA
Location:  35.67°N, 97.33°W
Report Text: KGOK 221353Z AUTO 17004KT 10SM CLR 17/15 A3015 RMK AO2 SLP203 T01720150
Loading
Personal Weather Stations






























Interactive Weather Map
Tropical Storm Tracking
New forecast layout! Learn more

10-Day Weather Forecast

Advertisements
Track Severe Weather on mobile